sensor_id;sensor_type;location;lat;lon;timestamp;P1;durP1;ratioP1;P2;durP2;ratioP2
37299;SDS011;23184;51.902;12.836;2022-11-12T00:00:41;10.23;;;5.72;;
37299;SDS011;23184;51.902;12.836;2022-11-12T00:03:06;9.38;;;5.40;;
37299;SDS011;23184;51.902;12.836;2022-11-12T00:05:33;10.43;;;6.00;;
37299;SDS011;23184;51.902;12.836;2022-11-12T00:07:58;11.27;;;5.18;;
37299;SDS011;23184;51.902;12.836;2022-11-12T00:10:24;13.07;;;6.18;;
37299;SDS011;23184;51.902;12.836;2022-11-12T00:12:50;11.13;;;5.28;;
37299;SDS011;23184;51.902;12.836;2022-11-12T00:15:16;12.13;;;5.20;;
37299;SDS011;23184;51.902;12.836;2022-11-12T00:17:42;13.25;;;5.80;;
37299;SDS011;23184;51.902;12.836;2022-11-12T00:20:08;12.48;;;5.75;;
37299;SDS011;23184;51.902;12.836;2022-11-12T00:22:34;10.32;;;5.03;;
37299;SDS011;23184;51.902;12.836;2022-11-12T00:25:00;15.73;;;7.82;;
37299;SDS011;23184;51.902;12.836;2022-11-12T00:27:25;11.77;;;6.38;;
37299;SDS011;23184;51.902;12.836;2022-11-12T00:29:51;11.00;;;6.10;;
37299;SDS011;23184;51.902;12.836;2022-11-12T00:32:16;13.10;;;6.05;;
37299;SDS011;23184;51.902;12.836;2022-11-12T00:34:43;12.73;;;5.43;;
37299;SDS011;23184;51.902;12.836;2022-11-12T00:37:09;11.63;;;5.68;;
37299;SDS011;23184;51.902;12.836;2022-11-12T00:39:34;10.32;;;6.00;;
37299;SDS011;23184;51.902;12.836;2022-11-12T00:42:00;12.27;;;6.20;;
37299;SDS011;23184;51.902;12.836;2022-11-12T00:44:25;12.70;;;5.55;;
37299;SDS011;23184;51.902;12.836;2022-11-12T00:46:55;14.48;;;5.57;;
37299;SDS011;23184;51.902;12.836;2022-11-12T00:49:21;10.05;;;6.05;;
37299;SDS011;23184;51.902;12.836;2022-11-12T00:51:46;14.05;;;5.50;;
37299;SDS011;23184;51.902;12.836;2022-11-12T00:54:12;10.95;;;5.00;;
37299;SDS011;23184;51.902;12.836;2022-11-12T00:56:38;7.53;;;4.00;;
37299;SDS011;23184;51.902;12.836;2022-11-12T00:59:03;7.32;;;4.07;;
37299;SDS011;23184;51.902;12.836;2022-11-12T01:01:29;8.60;;;4.38;;
37299;SDS011;23184;51.902;12.836;2022-11-12T01:03:56;9.63;;;4.07;;
37299;SDS011;23184;51.902;12.836;2022-11-12T01:06:23;7.90;;;4.35;;
37299;SDS011;23184;51.902;12.836;2022-11-12T01:08:49;7.20;;;4.40;;
37299;SDS011;23184;51.902;12.836;2022-11-12T01:14:00;14.98;;;6.18;;
37299;SDS011;23184;51.902;12.836;2022-11-12T01:16:29;11.75;;;5.72;;
37299;SDS011;23184;51.902;12.836;2022-11-12T01:18:58;12.85;;;6.55;;
37299;SDS011;23184;51.902;12.836;2022-11-12T01:21:26;14.27;;;5.93;;
37299;SDS011;23184;51.902;12.836;2022-11-12T01:23:55;13.00;;;6.72;;
37299;SDS011;23184;51.902;12.836;2022-11-12T01:26:21;15.00;;;6.65;;
37299;SDS011;23184;51.902;12.836;2022-11-12T01:28:48;11.82;;;6.68;;
37299;SDS011;23184;51.902;12.836;2022-11-12T01:31:15;9.88;;;6.03;;
37299;SDS011;23184;51.902;12.836;2022-11-12T01:33:53;11.45;;;6.13;;
37299;SDS011;23184;51.902;12.836;2022-11-12T01:36:21;12.80;;;6.38;;
37299;SDS011;23184;51.902;12.836;2022-11-12T01:38:47;15.68;;;6.63;;
37299;SDS011;23184;51.902;12.836;2022-11-12T01:41:15;15.05;;;6.43;;
37299;SDS011;23184;51.902;12.836;2022-11-12T01:43:43;12.32;;;6.10;;
37299;SDS011;23184;51.902;12.836;2022-11-12T01:46:24;16.17;;;6.78;;
37299;SDS011;23184;51.902;12.836;2022-11-12T01:48:53;13.65;;;6.80;;
37299;SDS011;23184;51.902;12.836;2022-11-12T01:51:23;13.60;;;6.38;;
37299;SDS011;23184;51.902;12.836;2022-11-12T01:53:53;10.77;;;5.90;;
37299;SDS011;23184;51.902;12.836;2022-11-12T01:56:22;9.20;;;5.93;;
37299;SDS011;23184;51.902;12.836;2022-11-12T01:58:52;14.23;;;6.95;;
37299;SDS011;23184;51.902;12.836;2022-11-12T02:01:24;14.05;;;6.70;;
37299;SDS011;23184;51.902;12.836;2022-11-12T02:03:50;14.82;;;6.70;;
37299;SDS011;23184;51.902;12.836;2022-11-12T02:06:15;9.80;;;5.90;;
37299;SDS011;23184;51.902;12.836;2022-11-12T02:08:43;11.43;;;6.60;;
37299;SDS011;23184;51.902;12.836;2022-11-12T02:11:13;10.55;;;5.82;;
37299;SDS011;23184;51.902;12.836;2022-11-12T02:13:43;11.55;;;6.97;;
37299;SDS011;23184;51.902;12.836;2022-11-12T02:18:56;13.20;;;7.10;;
37299;SDS011;23184;51.902;12.836;2022-11-12T02:21:22;11.68;;;7.03;;
37299;SDS011;23184;51.902;12.836;2022-11-12T02:23:58;14.80;;;7.00;;
37299;SDS011;23184;51.902;12.836;2022-11-12T02:26:25;13.00;;;6.65;;
37299;SDS011;23184;51.902;12.836;2022-11-12T02:28:54;17.95;;;7.82;;
37299;SDS011;23184;51.902;12.836;2022-11-12T02:31:19;14.45;;;7.18;;
37299;SDS011;23184;51.902;12.836;2022-11-12T02:33:45;14.30;;;7.82;;
37299;SDS011;23184;51.902;12.836;2022-11-12T02:36:10;16.15;;;9.18;;
37299;SDS011;23184;51.902;12.836;2022-11-12T02:38:36;16.88;;;9.18;;
37299;SDS011;23184;51.902;12.836;2022-11-12T02:41:01;24.13;;;10.75;;
37299;SDS011;23184;51.902;12.836;2022-11-12T02:43:27;19.60;;;9.73;;
37299;SDS011;23184;51.902;12.836;2022-11-12T02:45:53;25.48;;;10.32;;
37299;SDS011;23184;51.902;12.836;2022-11-12T02:48:18;17.85;;;8.57;;
37299;SDS011;23184;51.902;12.836;2022-11-12T02:50:45;18.70;;;9.18;;
37299;SDS011;23184;51.902;12.836;2022-11-12T02:53:11;18.38;;;9.48;;
37299;SDS011;23184;51.902;12.836;2022-11-12T02:55:37;18.52;;;8.35;;
37299;SDS011;23184;51.902;12.836;2022-11-12T02:58:02;15.70;;;8.05;;
37299;SDS011;23184;51.902;12.836;2022-11-12T03:00:28;16.45;;;8.88;;
37299;SDS011;23184;51.902;12.836;2022-11-12T03:02:53;19.95;;;10.15;;
37299;SDS011;23184;51.902;12.836;2022-11-12T03:05:26;20.02;;;10.23;;
37299;SDS011;23184;51.902;12.836;2022-11-12T03:07:56;16.20;;;8.80;;
37299;SDS011;23184;51.902;12.836;2022-11-12T03:10:24;16.75;;;10.05;;
37299;SDS011;23184;51.902;12.836;2022-11-12T03:12:51;20.15;;;9.40;;
37299;SDS011;23184;51.902;12.836;2022-11-12T03:15:18;21.60;;;10.07;;
37299;SDS011;23184;51.902;12.836;2022-11-12T03:17:44;20.25;;;9.30;;
37299;SDS011;23184;51.902;12.836;2022-11-12T03:20:10;15.60;;;8.02;;
37299;SDS011;23184;51.902;12.836;2022-11-12T03:22:36;17.42;;;8.45;;
37299;SDS011;23184;51.902;12.836;2022-11-12T03:25:03;18.02;;;9.00;;
37299;SDS011;23184;51.902;12.836;2022-11-12T03:27:29;17.65;;;9.13;;
37299;SDS011;23184;51.902;12.836;2022-11-12T03:29:55;21.88;;;9.07;;
37299;SDS011;23184;51.902;12.836;2022-11-12T03:32:21;17.83;;;9.60;;
37299;SDS011;23184;51.902;12.836;2022-11-12T03:34:46;22.13;;;11.02;;
37299;SDS011;23184;51.902;12.836;2022-11-12T03:37:12;22.48;;;9.98;;
37299;SDS011;23184;51.902;12.836;2022-11-12T03:39:38;21.23;;;10.63;;
37299;SDS011;23184;51.902;12.836;2022-11-12T03:42:03;20.42;;;10.85;;
37299;SDS011;23184;51.902;12.836;2022-11-12T03:44:29;20.73;;;10.10;;
37299;SDS011;23184;51.902;12.836;2022-11-12T03:46:55;19.70;;;10.20;;
37299;SDS011;23184;51.902;12.836;2022-11-12T03:49:20;17.58;;;9.35;;
37299;SDS011;23184;51.902;12.836;2022-11-12T03:51:46;17.10;;;8.85;;
37299;SDS011;23184;51.902;12.836;2022-11-12T03:54:11;20.73;;;10.20;;
37299;SDS011;23184;51.902;12.836;2022-11-12T03:56:37;26.30;;;11.32;;
37299;SDS011;23184;51.902;12.836;2022-11-12T03:59:03;25.48;;;11.57;;
37299;SDS011;23184;51.902;12.836;2022-11-12T04:01:29;27.58;;;11.45;;
37299;SDS011;23184;51.902;12.836;2022-11-12T04:03:55;21.27;;;11.43;;
37299;SDS011;23184;51.902;12.836;2022-11-12T04:06:21;21.40;;;11.90;;
37299;SDS011;23184;51.902;12.836;2022-11-12T04:09:05;21.45;;;10.98;;
37299;SDS011;23184;51.902;12.836;2022-11-12T04:11:31;20.00;;;10.50;;
37299;SDS011;23184;51.902;12.836;2022-11-12T04:13:56;16.33;;;9.55;;
37299;SDS011;23184;51.902;12.836;2022-11-12T04:16:22;15.23;;;8.27;;
37299;SDS011;23184;51.902;12.836;2022-11-12T04:19:10;15.90;;;9.07;;
37299;SDS011;23184;51.902;12.836;2022-11-12T04:22:06;15.77;;;8.05;;
37299;SDS011;23184;51.902;12.836;2022-11-12T04:24:39;14.07;;;7.72;;
37299;SDS011;23184;51.902;12.836;2022-11-12T04:27:26;13.80;;;8.43;;
37299;SDS011;23184;51.902;12.836;2022-11-12T04:29:53;11.88;;;7.70;;
37299;SDS011;23184;51.902;12.836;2022-11-12T04:32:48;15.57;;;8.63;;
37299;SDS011;23184;51.902;12.836;2022-11-12T04:35:15;14.57;;;8.02;;
37299;SDS011;23184;51.902;12.836;2022-11-12T04:37:42;17.25;;;8.07;;
37299;SDS011;23184;51.902;12.836;2022-11-12T04:40:12;19.02;;;9.93;;
37299;SDS011;23184;51.902;12.836;2022-11-12T04:43:01;17.00;;;8.82;;
37299;SDS011;23184;51.902;12.836;2022-11-12T04:45:47;17.25;;;9.32;;
37299;SDS011;23184;51.902;12.836;2022-11-12T04:48:15;15.93;;;8.63;;
37299;SDS011;23184;51.902;12.836;2022-11-12T04:50:41;18.85;;;9.10;;
37299;SDS011;23184;51.902;12.836;2022-11-12T04:53:08;16.60;;;8.45;;
37299;SDS011;23184;51.902;12.836;2022-11-12T04:55:34;16.17;;;8.98;;
37299;SDS011;23184;51.902;12.836;2022-11-12T04:58:00;18.73;;;9.05;;
37299;SDS011;23184;51.902;12.836;2022-11-12T05:00:25;16.63;;;7.95;;
37299;SDS011;23184;51.902;12.836;2022-11-12T05:02:51;14.07;;;6.68;;
37299;SDS011;23184;51.902;12.836;2022-11-12T05:05:16;13.07;;;7.10;;
37299;SDS011;23184;51.902;12.836;2022-11-12T05:07:42;13.07;;;7.40;;
37299;SDS011;23184;51.902;12.836;2022-11-12T05:10:08;11.95;;;6.10;;
37299;SDS011;23184;51.902;12.836;2022-11-12T05:12:34;12.73;;;5.85;;
37299;SDS011;23184;51.902;12.836;2022-11-12T05:15:00;13.60;;;6.88;;
37299;SDS011;23184;51.902;12.836;2022-11-12T05:17:26;13.85;;;7.60;;
37299;SDS011;23184;51.902;12.836;2022-11-12T05:19:52;17.17;;;9.52;;
37299;SDS011;23184;51.902;12.836;2022-11-12T05:22:18;17.52;;;9.55;;
37299;SDS011;23184;51.902;12.836;2022-11-12T05:24:44;17.27;;;10.00;;
37299;SDS011;23184;51.902;12.836;2022-11-12T05:27:11;20.20;;;10.00;;
37299;SDS011;23184;51.902;12.836;2022-11-12T05:29:41;19.98;;;10.00;;
37299;SDS011;23184;51.902;12.836;2022-11-12T05:32:07;19.90;;;10.35;;
37299;SDS011;23184;51.902;12.836;2022-11-12T05:34:38;19.67;;;9.98;;
37299;SDS011;23184;51.902;12.836;2022-11-12T05:37:04;24.67;;;10.20;;
37299;SDS011;23184;51.902;12.836;2022-11-12T05:39:31;15.63;;;9.70;;
37299;SDS011;23184;51.902;12.836;2022-11-12T05:41:56;22.50;;;10.48;;
37299;SDS011;23184;51.902;12.836;2022-11-12T05:44:22;16.48;;;8.40;;
37299;SDS011;23184;51.902;12.836;2022-11-12T05:46:48;19.35;;;10.05;;
37299;SDS011;23184;51.902;12.836;2022-11-12T05:49:14;14.07;;;6.57;;
37299;SDS011;23184;51.902;12.836;2022-11-12T05:51:40;14.30;;;6.55;;
37299;SDS011;23184;51.902;12.836;2022-11-12T05:54:06;12.48;;;7.30;;
37299;SDS011;23184;51.902;12.836;2022-11-12T05:56:32;15.77;;;8.15;;
37299;SDS011;23184;51.902;12.836;2022-11-12T05:58:58;14.43;;;7.22;;
37299;SDS011;23184;51.902;12.836;2022-11-12T06:01:25;17.05;;;6.75;;
37299;SDS011;23184;51.902;12.836;2022-11-12T06:03:51;17.20;;;8.43;;
37299;SDS011;23184;51.902;12.836;2022-11-12T06:06:16;19.02;;;10.02;;
37299;SDS011;23184;51.902;12.836;2022-11-12T06:08:42;18.08;;;8.25;;
37299;SDS011;23184;51.902;12.836;2022-11-12T06:11:07;14.43;;;7.70;;
37299;SDS011;23184;51.902;12.836;2022-11-12T06:13:33;11.63;;;6.68;;
37299;SDS011;23184;51.902;12.836;2022-11-12T06:15:59;11.75;;;6.80;;
37299;SDS011;23184;51.902;12.836;2022-11-12T06:18:24;14.18;;;7.28;;
37299;SDS011;23184;51.902;12.836;2022-11-12T06:20:50;13.60;;;7.50;;
37299;SDS011;23184;51.902;12.836;2022-11-12T06:23:34;15.10;;;6.88;;
37299;SDS011;23184;51.902;12.836;2022-11-12T06:25:59;13.85;;;7.57;;
37299;SDS011;23184;51.902;12.836;2022-11-12T06:28:25;12.57;;;7.50;;
37299;SDS011;23184;51.902;12.836;2022-11-12T06:30:51;13.40;;;7.38;;
37299;SDS011;23184;51.902;12.836;2022-11-12T06:33:17;14.73;;;8.57;;
37299;SDS011;23184;51.902;12.836;2022-11-12T06:35:42;13.65;;;8.40;;
37299;SDS011;23184;51.902;12.836;2022-11-12T06:38:08;13.43;;;7.43;;
37299;SDS011;23184;51.902;12.836;2022-11-12T06:40:33;15.88;;;8.05;;
37299;SDS011;23184;51.902;12.836;2022-11-12T06:42:59;15.77;;;8.18;;
37299;SDS011;23184;51.902;12.836;2022-11-12T06:45:25;15.45;;;7.95;;
37299;SDS011;23184;51.902;12.836;2022-11-12T06:47:50;12.10;;;7.20;;
37299;SDS011;23184;51.902;12.836;2022-11-12T06:50:16;14.32;;;8.35;;
37299;SDS011;23184;51.902;12.836;2022-11-12T06:52:41;14.82;;;7.97;;
37299;SDS011;23184;51.902;12.836;2022-11-12T06:55:07;15.65;;;7.22;;
37299;SDS011;23184;51.902;12.836;2022-11-12T06:57:33;10.02;;;5.88;;
37299;SDS011;23184;51.902;12.836;2022-11-12T06:59:59;10.98;;;7.22;;
37299;SDS011;23184;51.902;12.836;2022-11-12T07:02:24;12.75;;;7.20;;
37299;SDS011;23184;51.902;12.836;2022-11-12T07:04:50;9.80;;;6.57;;
37299;SDS011;23184;51.902;12.836;2022-11-12T07:07:16;12.02;;;6.63;;
37299;SDS011;23184;51.902;12.836;2022-11-12T07:09:41;13.50;;;6.15;;
37299;SDS011;23184;51.902;12.836;2022-11-12T07:12:07;10.98;;;6.38;;
37299;SDS011;23184;51.902;12.836;2022-11-12T07:14:32;10.57;;;6.43;;
37299;SDS011;23184;51.902;12.836;2022-11-12T07:16:58;11.13;;;6.00;;
37299;SDS011;23184;51.902;12.836;2022-11-12T07:19:24;9.63;;;5.85;;
37299;SDS011;23184;51.902;12.836;2022-11-12T07:21:49;10.95;;;6.57;;
37299;SDS011;23184;51.902;12.836;2022-11-12T07:24:15;9.13;;;6.30;;
37299;SDS011;23184;51.902;12.836;2022-11-12T07:26:41;13.00;;;6.30;;
37299;SDS011;23184;51.902;12.836;2022-11-12T07:29:06;9.10;;;5.88;;
37299;SDS011;23184;51.902;12.836;2022-11-12T07:31:32;8.95;;;5.70;;
37299;SDS011;23184;51.902;12.836;2022-11-12T07:33:58;12.52;;;6.57;;
37299;SDS011;23184;51.902;12.836;2022-11-12T07:36:24;9.90;;;5.50;;
37299;SDS011;23184;51.902;12.836;2022-11-12T07:38:51;8.30;;;5.78;;
37299;SDS011;23184;51.902;12.836;2022-11-12T07:41:18;9.13;;;5.50;;
37299;SDS011;23184;51.902;12.836;2022-11-12T07:43:46;9.30;;;5.63;;
37299;SDS011;23184;51.902;12.836;2022-11-12T07:46:14;9.05;;;6.10;;
37299;SDS011;23184;51.902;12.836;2022-11-12T07:48:41;9.75;;;6.05;;
37299;SDS011;23184;51.902;12.836;2022-11-12T07:51:15;10.60;;;6.60;;
37299;SDS011;23184;51.902;12.836;2022-11-12T07:53:42;12.73;;;6.25;;
37299;SDS011;23184;51.902;12.836;2022-11-12T07:56:10;13.73;;;6.70;;
37299;SDS011;23184;51.902;12.836;2022-11-12T07:58:36;13.45;;;7.30;;
37299;SDS011;23184;51.902;12.836;2022-11-12T08:01:06;13.15;;;7.57;;
37299;SDS011;23184;51.902;12.836;2022-11-12T08:03:32;9.27;;;6.00;;
37299;SDS011;23184;51.902;12.836;2022-11-12T08:06:00;9.70;;;5.75;;
37299;SDS011;23184;51.902;12.836;2022-11-12T08:08:26;9.70;;;6.22;;
37299;SDS011;23184;51.902;12.836;2022-11-12T08:10:55;9.38;;;6.20;;
37299;SDS011;23184;51.902;12.836;2022-11-12T08:13:22;11.95;;;6.43;;
37299;SDS011;23184;51.902;12.836;2022-11-12T08:15:47;12.02;;;6.80;;
37299;SDS011;23184;51.902;12.836;2022-11-12T08:18:13;11.85;;;7.07;;
37299;SDS011;23184;51.902;12.836;2022-11-12T08:20:39;15.55;;;7.68;;
37299;SDS011;23184;51.902;12.836;2022-11-12T08:23:04;13.18;;;7.15;;
37299;SDS011;23184;51.902;12.836;2022-11-12T08:25:30;12.38;;;7.47;;
37299;SDS011;23184;51.902;12.836;2022-11-12T08:27:56;12.85;;;8.25;;
37299;SDS011;23184;51.902;12.836;2022-11-12T08:30:23;10.85;;;7.13;;
37299;SDS011;23184;51.902;12.836;2022-11-12T08:32:57;8.13;;;5.97;;
37299;SDS011;23184;51.902;12.836;2022-11-12T08:35:24;9.38;;;5.80;;
37299;SDS011;23184;51.902;12.836;2022-11-12T08:37:51;10.73;;;5.32;;
37299;SDS011;23184;51.902;12.836;2022-11-12T08:40:21;11.65;;;5.00;;
37299;SDS011;23184;51.902;12.836;2022-11-12T08:42:46;6.85;;;4.13;;
37299;SDS011;23184;51.902;12.836;2022-11-12T08:45:12;7.90;;;3.85;;
37299;SDS011;23184;51.902;12.836;2022-11-12T08:47:38;6.03;;;3.70;;
37299;SDS011;23184;51.902;12.836;2022-11-12T08:50:03;6.18;;;3.90;;
37299;SDS011;23184;51.902;12.836;2022-11-12T08:52:29;6.32;;;4.20;;
37299;SDS011;23184;51.902;12.836;2022-11-12T08:54:55;5.00;;;3.90;;
37299;SDS011;23184;51.902;12.836;2022-11-12T08:57:20;6.82;;;4.07;;
37299;SDS011;23184;51.902;12.836;2022-11-12T08:59:46;6.30;;;4.00;;
37299;SDS011;23184;51.902;12.836;2022-11-12T09:02:12;10.35;;;4.53;;
37299;SDS011;23184;51.902;12.836;2022-11-12T09:04:38;6.43;;;3.70;;
37299;SDS011;23184;51.902;12.836;2022-11-12T09:07:03;6.93;;;3.88;;
37299;SDS011;23184;51.902;12.836;2022-11-12T09:09:29;8.77;;;3.85;;
37299;SDS011;23184;51.902;12.836;2022-11-12T09:11:54;5.22;;;3.70;;
37299;SDS011;23184;51.902;12.836;2022-11-12T09:14:20;8.50;;;3.90;;
37299;SDS011;23184;51.902;12.836;2022-11-12T09:16:45;4.43;;;3.63;;
37299;SDS011;23184;51.902;12.836;2022-11-12T09:19:11;5.78;;;3.72;;
37299;SDS011;23184;51.902;12.836;2022-11-12T09:21:36;7.97;;;3.75;;
37299;SDS011;23184;51.902;12.836;2022-11-12T09:24:02;5.45;;;4.05;;
37299;SDS011;23184;51.902;12.836;2022-11-12T09:26:28;10.48;;;5.10;;
37299;SDS011;23184;51.902;12.836;2022-11-12T09:28:53;10.93;;;5.63;;
37299;SDS011;23184;51.902;12.836;2022-11-12T09:31:19;8.25;;;5.25;;
37299;SDS011;23184;51.902;12.836;2022-11-12T09:33:45;7.10;;;4.63;;
37299;SDS011;23184;51.902;12.836;2022-11-12T09:36:10;12.95;;;7.43;;
37299;SDS011;23184;51.902;12.836;2022-11-12T09:38:36;26.75;;;14.27;;
37299;SDS011;23184;51.902;12.836;2022-11-12T09:41:04;25.98;;;14.50;;
37299;SDS011;23184;51.902;12.836;2022-11-12T09:44:01;47.05;;;26.48;;
37299;SDS011;23184;51.902;12.836;2022-11-12T09:46:43;16.75;;;10.50;;
37299;SDS011;23184;51.902;12.836;2022-11-12T09:52:13;12.73;;;7.30;;
37299;SDS011;23184;51.902;12.836;2022-11-12T09:54:43;11.82;;;7.60;;
37299;SDS011;23184;51.902;12.836;2022-11-12T09:57:10;16.83;;;8.15;;
37299;SDS011;23184;51.902;12.836;2022-11-12T09:59:37;13.98;;;7.20;;
37299;SDS011;23184;51.902;12.836;2022-11-12T10:02:17;13.00;;;7.80;;
37299;SDS011;23184;51.902;12.836;2022-11-12T10:10:14;9.63;;;5.68;;
37299;SDS011;23184;51.902;12.836;2022-11-12T10:18:48;8.25;;;5.00;;
37299;SDS011;23184;51.902;12.836;2022-11-12T10:21:49;9.30;;;4.60;;
37299;SDS011;23184;51.902;12.836;2022-11-12T10:24:38;8.63;;;4.78;;
37299;SDS011;23184;51.902;12.836;2022-11-12T10:27:14;8.75;;;4.53;;
37299;SDS011;23184;51.902;12.836;2022-11-12T10:32:19;10.43;;;4.28;;
37299;SDS011;23184;51.902;12.836;2022-11-12T10:34:44;8.27;;;4.65;;
37299;SDS011;23184;51.902;12.836;2022-11-12T10:39:44;9.32;;;4.38;;
37299;SDS011;23184;51.902;12.836;2022-11-12T10:42:15;10.38;;;4.00;;
37299;SDS011;23184;51.902;12.836;2022-11-12T10:44:42;5.93;;;3.30;;
37299;SDS011;23184;51.902;12.836;2022-11-12T10:47:17;7.68;;;3.67;;
37299;SDS011;23184;51.902;12.836;2022-11-12T10:52:34;8.50;;;4.28;;
37299;SDS011;23184;51.902;12.836;2022-11-12T10:57:56;7.45;;;4.55;;
37299;SDS011;23184;51.902;12.836;2022-11-12T11:00:27;8.13;;;4.13;;
37299;SDS011;23184;51.902;12.836;2022-11-12T11:02:53;6.03;;;3.65;;
37299;SDS011;23184;51.902;12.836;2022-11-12T11:05:29;8.18;;;3.85;;
37299;SDS011;23184;51.902;12.836;2022-11-12T11:08:00;6.72;;;3.38;;
37299;SDS011;23184;51.902;12.836;2022-11-12T11:10:30;5.03;;;3.13;;
37299;SDS011;23184;51.902;12.836;2022-11-12T11:13:08;4.38;;;2.75;;
37299;SDS011;23184;51.902;12.836;2022-11-12T11:15:40;5.28;;;3.00;;
37299;SDS011;23184;51.902;12.836;2022-11-12T11:18:29;4.65;;;3.10;;
37299;SDS011;23184;51.902;12.836;2022-11-12T11:24:46;6.10;;;2.80;;
37299;SDS011;23184;51.902;12.836;2022-11-12T11:29:53;6.18;;;3.10;;
37299;SDS011;23184;51.902;12.836;2022-11-12T11:35:39;5.20;;;2.70;;
37299;SDS011;23184;51.902;12.836;2022-11-12T11:44:13;4.90;;;2.63;;
37299;SDS011;23184;51.902;12.836;2022-11-12T11:46:50;4.75;;;2.47;;
37299;SDS011;23184;51.902;12.836;2022-11-12T12:03:23;4.47;;;2.70;;
37299;SDS011;23184;51.902;12.836;2022-11-12T12:16:52;8.02;;;3.55;;
37299;SDS011;23184;51.902;12.836;2022-11-12T12:22:34;5.68;;;3.63;;
37299;SDS011;23184;51.902;12.836;2022-11-12T12:25:12;4.32;;;2.80;;
37299;SDS011;23184;51.902;12.836;2022-11-12T12:27:49;5.63;;;2.83;;
37299;SDS011;23184;51.902;12.836;2022-11-12T12:30:24;3.72;;;2.30;;
37299;SDS011;23184;51.902;12.836;2022-11-12T12:35:55;5.60;;;2.65;;
37299;SDS011;23184;51.902;12.836;2022-11-12T12:38:43;7.32;;;3.17;;
37299;SDS011;23184;51.902;12.836;2022-11-12T12:41:20;6.07;;;3.22;;
37299;SDS011;23184;51.902;12.836;2022-11-12T12:43:53;8.80;;;3.03;;
37299;SDS011;23184;51.902;12.836;2022-11-12T12:46:25;5.43;;;3.03;;
37299;SDS011;23184;51.902;12.836;2022-11-12T12:48:54;6.68;;;3.17;;
37299;SDS011;23184;51.902;12.836;2022-11-12T12:51:23;6.57;;;2.90;;
37299;SDS011;23184;51.902;12.836;2022-11-12T12:53:53;6.32;;;2.83;;
37299;SDS011;23184;51.902;12.836;2022-11-12T12:58:47;6.35;;;2.97;;
37299;SDS011;23184;51.902;12.836;2022-11-12T13:03:52;5.65;;;2.78;;
37299;SDS011;23184;51.902;12.836;2022-11-12T13:11:45;6.25;;;2.50;;
37299;SDS011;23184;51.902;12.836;2022-11-12T13:17:42;7.57;;;2.85;;
37299;SDS011;23184;51.902;12.836;2022-11-12T13:46:21;6.63;;;3.00;;
37299;SDS011;23184;51.902;12.836;2022-11-12T13:49:01;5.75;;;2.85;;
37299;SDS011;23184;51.902;12.836;2022-11-12T13:59:47;7.25;;;2.95;;
37299;SDS011;23184;51.902;12.836;2022-11-12T14:02:20;5.13;;;3.10;;
37299;SDS011;23184;51.902;12.836;2022-11-12T14:04:49;5.13;;;2.67;;
37299;SDS011;23184;51.902;12.836;2022-11-12T14:07:26;5.05;;;2.65;;
37299;SDS011;23184;51.902;12.836;2022-11-12T14:13:21;8.00;;;2.60;;
37299;SDS011;23184;51.902;12.836;2022-11-12T14:15:58;6.95;;;3.00;;
37299;SDS011;23184;51.902;12.836;2022-11-12T14:21:32;3.65;;;2.20;;
37299;SDS011;23184;51.902;12.836;2022-11-12T14:23:59;3.45;;;2.10;;
37299;SDS011;23184;51.902;12.836;2022-11-12T14:26:34;4.88;;;2.67;;
37299;SDS011;23184;51.902;12.836;2022-11-12T14:29:06;4.53;;;2.13;;
37299;SDS011;23184;51.902;12.836;2022-11-12T14:31:40;4.65;;;2.30;;
37299;SDS011;23184;51.902;12.836;2022-11-12T14:37:03;3.10;;;2.00;;
37299;SDS011;23184;51.902;12.836;2022-11-12T14:39:29;4.28;;;2.30;;
37299;SDS011;23184;51.902;12.836;2022-11-12T14:41:55;5.43;;;2.67;;
37299;SDS011;23184;51.902;12.836;2022-11-12T14:44:25;4.90;;;2.58;;
37299;SDS011;23184;51.902;12.836;2022-11-12T14:46:56;4.82;;;2.53;;
37299;SDS011;23184;51.902;12.836;2022-11-12T14:49:38;4.50;;;2.60;;
37299;SDS011;23184;51.902;12.836;2022-11-12T14:52:22;4.72;;;2.50;;
37299;SDS011;23184;51.902;12.836;2022-11-12T14:54:53;5.75;;;2.60;;
37299;SDS011;23184;51.902;12.836;2022-11-12T14:57:24;6.25;;;2.85;;
37299;SDS011;23184;51.902;12.836;2022-11-12T14:59:51;6.60;;;2.58;;
37299;SDS011;23184;51.902;12.836;2022-11-12T15:02:21;8.80;;;2.50;;
37299;SDS011;23184;51.902;12.836;2022-11-12T15:05:29;6.20;;;2.47;;
37299;SDS011;23184;51.902;12.836;2022-11-12T15:08:02;4.82;;;2.75;;
37299;SDS011;23184;51.902;12.836;2022-11-12T15:10:31;7.95;;;3.88;;
37299;SDS011;23184;51.902;12.836;2022-11-12T15:13:19;11.15;;;5.50;;
37299;SDS011;23184;51.902;12.836;2022-11-12T15:15:57;10.27;;;4.40;;
37299;SDS011;23184;51.902;12.836;2022-11-12T15:18:29;10.88;;;4.43;;
37299;SDS011;23184;51.902;12.836;2022-11-12T15:23:49;10.18;;;4.30;;
37299;SDS011;23184;51.902;12.836;2022-11-12T15:26:36;7.53;;;3.47;;
37299;SDS011;23184;51.902;12.836;2022-11-12T15:31:48;6.60;;;3.35;;
37299;SDS011;23184;51.902;12.836;2022-11-12T15:34:23;7.25;;;3.33;;
37299;SDS011;23184;51.902;12.836;2022-11-12T15:36:51;6.97;;;3.10;;
37299;SDS011;23184;51.902;12.836;2022-11-12T15:39:18;9.77;;;3.50;;
37299;SDS011;23184;51.902;12.836;2022-11-12T15:41:45;8.10;;;3.05;;
37299;SDS011;23184;51.902;12.836;2022-11-12T15:44:10;5.95;;;3.03;;
37299;SDS011;23184;51.902;12.836;2022-11-12T15:46:36;10.70;;;3.70;;
37299;SDS011;23184;51.902;12.836;2022-11-12T15:49:02;6.07;;;3.15;;
37299;SDS011;23184;51.902;12.836;2022-11-12T15:51:37;9.25;;;4.10;;
37299;SDS011;23184;51.902;12.836;2022-11-12T15:54:03;11.05;;;4.78;;
37299;SDS011;23184;51.902;12.836;2022-11-12T15:56:29;10.63;;;5.40;;
37299;SDS011;23184;51.902;12.836;2022-11-12T15:58:55;12.85;;;5.60;;
37299;SDS011;23184;51.902;12.836;2022-11-12T16:01:21;12.10;;;5.57;;
37299;SDS011;23184;51.902;12.836;2022-11-12T16:03:46;12.57;;;6.47;;
37299;SDS011;23184;51.902;12.836;2022-11-12T16:06:12;15.80;;;6.57;;
37299;SDS011;23184;51.902;12.836;2022-11-12T16:08:37;10.95;;;5.45;;
37299;SDS011;23184;51.902;12.836;2022-11-12T16:11:03;10.50;;;6.85;;
37299;SDS011;23184;51.902;12.836;2022-11-12T16:13:48;13.70;;;6.45;;
37299;SDS011;23184;51.902;12.836;2022-11-12T16:16:14;12.15;;;6.53;;
37299;SDS011;23184;51.902;12.836;2022-11-12T16:18:39;28.58;;;14.00;;
37299;SDS011;23184;51.902;12.836;2022-11-12T16:21:05;9.27;;;5.57;;
37299;SDS011;23184;51.902;12.836;2022-11-12T16:23:32;9.85;;;4.07;;
37299;SDS011;23184;51.902;12.836;2022-11-12T16:25:58;7.35;;;4.07;;
37299;SDS011;23184;51.902;12.836;2022-11-12T16:28:25;7.28;;;3.60;;
37299;SDS011;23184;51.902;12.836;2022-11-12T16:30:50;9.10;;;4.38;;
37299;SDS011;23184;51.902;12.836;2022-11-12T16:33:16;9.23;;;4.45;;
37299;SDS011;23184;51.902;12.836;2022-11-12T16:35:41;9.55;;;4.10;;
37299;SDS011;23184;51.902;12.836;2022-11-12T16:38:13;7.53;;;3.83;;
37299;SDS011;23184;51.902;12.836;2022-11-12T16:40:40;6.90;;;3.17;;
37299;SDS011;23184;51.902;12.836;2022-11-12T16:43:07;7.75;;;4.13;;
37299;SDS011;23184;51.902;12.836;2022-11-12T16:45:33;8.25;;;4.32;;
37299;SDS011;23184;51.902;12.836;2022-11-12T16:48:01;8.18;;;4.03;;
37299;SDS011;23184;51.902;12.836;2022-11-12T16:50:49;10.60;;;4.35;;
37299;SDS011;23184;51.902;12.836;2022-11-12T16:53:14;6.85;;;3.53;;
37299;SDS011;23184;51.902;12.836;2022-11-12T16:55:40;13.10;;;4.90;;